createdAt,value
2019-03-19T00:02:28.563Z,2.70
2019-03-19T00:04:57.009Z,2.70
2019-03-19T00:07:25.413Z,2.73
2019-03-19T00:09:53.880Z,3.10
2019-03-19T00:12:22.270Z,2.87
2019-03-19T00:14:50.679Z,2.80
2019-03-19T00:17:19.275Z,2.77
2019-03-19T00:19:47.609Z,3.43
2019-03-19T00:22:16.045Z,3.63
2019-03-19T00:24:44.427Z,3.60
2019-03-19T00:27:12.966Z,5.17
2019-03-19T00:29:41.365Z,5.93
2019-03-19T00:32:09.852Z,6.13
2019-03-19T00:34:38.244Z,5.70
2019-03-19T00:37:06.718Z,5.97
2019-03-19T00:39:35.129Z,6.10
2019-03-19T00:42:03.583Z,5.67
2019-03-19T00:44:32.079Z,5.87
2019-03-19T00:47:00.457Z,5.70
2019-03-19T00:49:28.911Z,5.70
2019-03-19T00:51:57.300Z,5.90
2019-03-19T00:54:25.697Z,5.90
2019-03-19T00:56:54.181Z,6.60
2019-03-19T00:59:22.578Z,6.03
2019-03-19T01:01:50.969Z,5.93
2019-03-19T01:04:19.366Z,5.43
2019-03-19T01:06:47.830Z,6.07
2019-03-19T01:09:16.225Z,5.77
2019-03-19T01:11:44.627Z,5.67
2019-03-19T01:14:13.204Z,6.40
2019-03-19T01:16:41.610Z,5.73
2019-03-19T01:19:10.080Z,5.37
2019-03-19T01:21:38.479Z,5.40
2019-03-19T01:24:07.085Z,5.87
2019-03-19T01:26:35.479Z,5.30
2019-03-19T01:29:03.906Z,5.07
2019-03-19T01:31:32.294Z,5.30
2019-03-19T01:34:00.709Z,5.10
2019-03-19T01:36:29.111Z,5.33
2019-03-19T01:38:57.695Z,5.70
2019-03-19T01:41:26.098Z,4.83
2019-03-19T01:43:54.511Z,4.97
2019-03-19T01:46:22.918Z,4.90
2019-03-19T01:48:51.339Z,5.37
2019-03-19T01:51:19.729Z,5.87
2019-03-19T01:53:48.118Z,5.50
2019-03-19T01:56:16.584Z,5.63
2019-03-19T01:58:45.144Z,5.50
2019-03-19T02:01:13.543Z,5.57
2019-03-19T02:03:42.007Z,6.30
2019-03-19T02:06:10.459Z,6.40
2019-03-19T02:08:38.852Z,6.33
2019-03-19T02:11:07.350Z,6.60
2019-03-19T02:13:35.984Z,5.90
2019-03-19T02:16:04.467Z,5.87
2019-03-19T02:18:32.842Z,5.67
2019-03-19T02:21:01.281Z,6.07
2019-03-19T02:23:29.673Z,5.67
2019-03-19T02:25:58.070Z,6.53
2019-03-19T02:28:26.474Z,6.10
2019-03-19T02:30:54.865Z,6.57
2019-03-19T02:33:23.251Z,6.37
2019-03-19T02:35:51.868Z,7.00
2019-03-19T02:38:20.260Z,6.83
2019-03-19T02:40:48.705Z,6.23
2019-03-19T02:43:17.157Z,6.53
2019-03-19T02:45:45.555Z,6.83
2019-03-19T02:48:13.968Z,7.47
2019-03-19T02:50:42.374Z,7.37
2019-03-19T02:53:10.924Z,7.10
2019-03-19T02:55:39.605Z,7.03
2019-03-19T02:58:08.103Z,6.57
2019-03-19T03:00:36.536Z,6.57
2019-03-19T03:03:05.012Z,6.73
2019-03-19T03:05:33.639Z,6.50
2019-03-19T03:08:02.085Z,6.60
2019-03-19T03:10:30.546Z,6.93
2019-03-19T03:12:58.962Z,7.23
2019-03-19T03:15:27.342Z,7.30
2019-03-19T03:17:55.804Z,6.80
2019-03-19T03:20:24.269Z,6.70
2019-03-19T03:22:52.672Z,7.53
2019-03-19T03:25:21.330Z,7.20
2019-03-19T03:27:49.742Z,6.77
2019-03-19T03:30:22.690Z,6.83
2019-03-19T03:32:51.422Z,8.50
2019-03-19T03:35:19.777Z,7.13
2019-03-19T03:37:48.318Z,8.07
2019-03-19T03:40:20.625Z,7.60
2019-03-19T03:42:49.022Z,8.03
2019-03-19T03:45:18.457Z,7.50
2019-03-19T03:47:46.988Z,7.50
2019-03-19T03:50:17.173Z,7.93
2019-03-19T03:52:45.784Z,7.60
2019-03-19T03:55:15.191Z,9.20
2019-03-19T03:57:43.770Z,8.47
2019-03-19T04:00:18.217Z,8.10
2019-03-19T04:02:46.636Z,7.20
2019-03-19T04:05:15.707Z,7.83
2019-03-19T04:07:44.396Z,8.20
2019-03-19T04:10:14.395Z,8.27
2019-03-19T04:12:42.780Z,7.87
2019-03-19T04:15:15.279Z,7.87
2019-03-19T04:17:43.742Z,8.90
2019-03-19T04:20:13.371Z,7.73
2019-03-19T04:22:41.850Z,7.93
2019-03-19T04:28:34.810Z,7.87
2019-03-19T04:31:03.483Z,8.37
2019-03-19T04:33:31.864Z,7.63
2019-03-19T04:36:00.285Z,8.40
2019-03-19T04:38:48.033Z,8.33
2019-03-19T04:41:16.449Z,8.57
2019-03-19T04:43:44.918Z,9.40
2019-03-19T04:46:13.344Z,9.07
2019-03-19T04:48:41.786Z,9.43
2019-03-19T04:51:10.276Z,9.23
2019-03-19T04:53:38.733Z,9.43
2019-03-19T04:56:07.426Z,9.33
2019-03-19T04:58:35.826Z,10.00
2019-03-19T05:01:04.309Z,9.20
2019-03-19T05:03:32.822Z,9.70
2019-03-19T05:06:01.356Z,9.90
2019-03-19T05:08:29.993Z,9.20
2019-03-19T05:10:58.397Z,9.33
2019-03-19T05:13:27.159Z,11.30
2019-03-19T05:15:55.556Z,10.70
2019-03-19T05:18:24.000Z,10.97
2019-03-19T05:20:52.404Z,11.50
2019-03-19T05:23:20.898Z,10.43
2019-03-19T05:25:49.411Z,10.70
2019-03-19T05:28:17.965Z,13.00
2019-03-19T05:30:46.546Z,12.80
2019-03-19T05:33:15.059Z,13.93
2019-03-19T05:35:43.479Z,15.53
2019-03-19T05:38:11.896Z,12.67
2019-03-19T05:40:40.307Z,14.17
2019-03-19T05:43:08.969Z,13.10
2019-03-19T05:45:37.389Z,13.07
2019-03-19T05:48:05.911Z,12.33
2019-03-19T05:50:34.316Z,12.57
2019-03-19T05:53:02.752Z,13.23
2019-03-19T05:55:31.158Z,11.47
2019-03-19T05:57:59.582Z,10.23
2019-03-19T06:00:29.734Z,11.20
2019-03-19T06:02:58.145Z,11.30
2019-03-19T06:05:26.563Z,11.43
2019-03-19T06:07:54.991Z,11.03
2019-03-19T06:10:25.893Z,12.13
2019-03-19T06:12:53.613Z,14.33
2019-03-19T06:15:22.077Z,16.17
2019-03-19T06:17:50.486Z,12.37
2019-03-19T06:20:19.826Z,12.37
2019-03-19T06:22:48.353Z,11.63
2019-03-19T06:25:16.916Z,10.40
2019-03-19T06:27:45.295Z,11.90
2019-03-19T06:30:24.017Z,11.37
2019-03-19T06:32:52.547Z,11.80
2019-03-19T06:35:21.199Z,11.17
2019-03-19T06:37:49.636Z,11.37
2019-03-19T06:40:21.779Z,10.73
2019-03-19T06:42:50.345Z,10.10
2019-03-19T06:45:22.618Z,10.40
2019-03-19T06:47:49.958Z,9.87
2019-03-19T06:50:19.417Z,9.70
2019-03-19T06:52:47.900Z,9.87
2019-03-19T06:55:17.291Z,9.77
2019-03-19T06:57:45.763Z,9.60
2019-03-19T07:00:19.055Z,9.13
2019-03-19T07:02:47.709Z,9.03
2019-03-19T07:05:17.459Z,8.47
2019-03-19T07:07:46.024Z,9.20
2019-03-19T07:10:16.627Z,9.33
2019-03-19T07:12:45.034Z,9.80
2019-03-19T07:15:18.690Z,9.30
2019-03-19T07:17:47.296Z,10.43
2019-03-19T07:20:18.092Z,10.97
2019-03-19T07:22:46.503Z,8.23
2019-03-19T07:25:16.519Z,8.17
2019-03-19T07:27:45.093Z,8.37
2019-03-19T07:30:27.490Z,7.87
2019-03-19T07:32:56.061Z,8.07
2019-03-19T07:35:24.560Z,7.67
2019-03-19T07:37:52.963Z,6.80
2019-03-19T07:40:21.440Z,6.20
2019-03-19T07:42:50.068Z,6.33
2019-03-19T07:45:25.970Z,7.87
2019-03-19T07:47:54.445Z,8.30
2019-03-19T07:50:23.898Z,6.63
2019-03-19T07:52:53.100Z,9.93
2019-03-19T07:55:21.589Z,10.77
2019-03-19T07:57:49.987Z,11.03
2019-03-19T08:00:22.212Z,9.03
2019-03-19T08:02:50.689Z,8.40
2019-03-19T08:05:19.151Z,7.30
2019-03-19T08:07:47.582Z,6.60
2019-03-19T08:10:17.045Z,7.50
2019-03-19T08:12:45.540Z,8.13
2019-03-19T08:15:17.035Z,8.18
2019-03-19T08:17:45.493Z,8.38
2019-03-19T08:20:15.188Z,7.67
2019-03-19T08:22:44.003Z,8.83
2019-03-19T08:25:13.511Z,8.30
2019-03-19T08:27:42.146Z,8.43
2019-03-19T08:30:24.099Z,11.75
2019-03-19T08:32:51.836Z,18.48
2019-03-19T08:35:20.342Z,8.13
2019-03-19T08:37:48.880Z,7.92
2019-03-19T08:40:19.123Z,9.55
2019-03-19T08:42:47.921Z,11.48
2019-03-19T08:45:20.492Z,10.23
2019-03-19T08:47:48.947Z,8.18
2019-03-19T08:50:18.811Z,9.28
2019-03-19T08:52:47.211Z,9.25
2019-03-19T08:55:15.708Z,4.50
2019-03-19T08:57:44.106Z,4.25
2019-03-19T09:00:18.675Z,4.53
2019-03-19T09:02:47.092Z,5.45
2019-03-19T09:05:15.790Z,4.80
2019-03-19T09:07:45.989Z,5.33
2019-03-19T09:10:20.747Z,4.33
2019-03-19T09:12:49.401Z,5.00
2019-03-19T09:15:30.982Z,4.97
2019-03-19T09:17:59.394Z,4.78
2019-03-19T09:20:27.892Z,3.98
2019-03-19T09:22:56.378Z,4.05
2019-03-19T09:25:24.782Z,3.95
2019-03-19T09:27:53.216Z,4.45
2019-03-19T09:30:25.476Z,4.70
2019-03-19T09:32:53.875Z,3.50
2019-03-19T09:35:22.531Z,3.60
2019-03-19T09:37:58.326Z,3.27
2019-03-19T09:40:22.190Z,3.98
2019-03-19T09:42:50.766Z,3.83
2019-03-19T09:45:19.355Z,3.72
2019-03-19T09:47:47.871Z,3.40
2019-03-19T09:50:20.102Z,3.05
2019-03-19T09:52:48.617Z,1.90
2019-03-19T09:55:17.194Z,2.20
2019-03-19T09:57:45.616Z,1.80
2019-03-19T10:00:17.091Z,1.85
2019-03-19T10:02:45.660Z,2.30
2019-03-19T10:05:14.224Z,1.30
2019-03-19T10:07:42.708Z,1.45
2019-03-19T10:10:13.670Z,1.57
2019-03-19T10:12:42.196Z,1.80
2019-03-19T10:15:11.130Z,2.10
2019-03-19T10:17:39.553Z,2.22
2019-03-19T10:20:13.681Z,1.87
2019-03-19T10:22:42.401Z,1.65
2019-03-19T10:25:12.750Z,1.40
2019-03-19T10:27:41.339Z,1.57
2019-03-19T10:30:17.758Z,1.70
2019-03-19T10:32:46.541Z,1.80
2019-03-19T10:35:15.079Z,1.35
2019-03-19T10:37:43.665Z,1.37
2019-03-19T10:40:14.535Z,2.00
2019-03-19T10:42:43.103Z,1.92
2019-03-19T10:45:18.465Z,1.70
2019-03-19T10:47:47.057Z,1.55
2019-03-19T10:50:20.902Z,1.80
2019-03-19T10:52:49.385Z,2.08
2019-03-19T10:55:18.283Z,1.80
2019-03-19T10:57:46.719Z,1.30
2019-03-19T11:00:25.200Z,1.37
2019-03-19T11:02:54.046Z,1.30
2019-03-19T11:05:23.192Z,1.45
2019-03-19T11:07:52.038Z,1.10
2019-03-19T11:10:20.894Z,1.32
2019-03-19T11:12:49.377Z,1.80
2019-03-19T11:15:23.531Z,1.40
2019-03-19T11:17:52.075Z,1.87
2019-03-19T11:20:21.043Z,1.50
2019-03-19T11:22:49.534Z,1.72
2019-03-19T11:25:22.642Z,1.20
2019-03-19T11:27:51.117Z,1.20
2019-03-19T11:30:25.453Z,1.15
2019-03-19T11:32:53.863Z,1.15
2019-03-19T11:35:22.536Z,1.32
2019-03-19T11:37:51.060Z,1.52
2019-03-19T11:40:20.483Z,1.40
2019-03-19T11:42:49.151Z,1.55
2019-03-19T11:45:22.527Z,2.35
2019-03-19T11:47:51.058Z,1.60
2019-03-19T11:50:21.320Z,1.90
2019-03-19T11:52:49.993Z,1.50
2019-03-19T11:55:18.908Z,1.50
2019-03-19T11:57:47.302Z,1.40
2019-03-19T12:00:23.153Z,1.03
2019-03-19T12:02:51.621Z,1.77
2019-03-19T12:05:20.191Z,2.52
2019-03-19T12:07:48.595Z,2.80
2019-03-19T12:10:17.149Z,2.10
2019-03-19T12:12:45.570Z,1.90
2019-03-19T12:15:14.023Z,1.60
2019-03-19T12:17:42.543Z,1.50
2019-03-19T12:20:13.140Z,1.50
2019-03-19T12:22:41.607Z,2.00
2019-03-19T12:25:11.254Z,1.80
2019-03-19T12:27:39.964Z,1.93
2019-03-19T12:30:26.324Z,1.52
2019-03-19T12:32:54.587Z,2.47
2019-03-19T12:35:23.472Z,1.50
2019-03-19T12:37:51.974Z,1.50
2019-03-19T12:40:21.646Z,1.30
2019-03-19T12:42:50.155Z,1.90
2019-03-19T12:45:19.793Z,1.90
2019-03-19T12:47:48.421Z,2.08
2019-03-19T12:50:20.916Z,1.98
2019-03-19T12:52:49.417Z,1.82
2019-03-19T12:55:17.943Z,1.80
2019-03-19T12:57:46.453Z,2.25
2019-03-19T13:01:12.789Z,1.90
2019-03-19T13:02:58.399Z,1.70
2019-03-19T13:05:26.866Z,1.87
2019-03-19T13:07:55.371Z,1.75
2019-03-19T13:10:24.506Z,1.62
2019-03-19T13:12:52.987Z,1.57
2019-03-19T13:15:21.899Z,1.40
2019-03-19T13:17:50.426Z,1.72
2019-03-19T13:20:19.909Z,1.65
2019-03-19T13:22:48.376Z,1.85
2019-03-19T13:25:19.869Z,1.85
2019-03-19T13:27:48.279Z,2.00
2019-03-19T13:30:21.380Z,1.35
2019-03-19T13:32:49.897Z,1.75
2019-03-19T13:35:18.312Z,1.50
2019-03-19T13:37:47.026Z,2.08
2019-03-19T13:40:19.721Z,1.72
2019-03-19T13:42:48.361Z,2.70
2019-03-19T13:45:23.548Z,1.60
2019-03-19T13:47:52.066Z,1.77
2019-03-19T13:50:21.102Z,1.98
2019-03-19T13:52:49.773Z,1.55
2019-03-19T13:55:21.695Z,2.00
2019-03-19T13:57:50.366Z,1.70
2019-03-19T14:00:19.609Z,1.62
2019-03-19T14:02:48.101Z,1.20
2019-03-19T14:05:17.333Z,2.30
2019-03-19T14:07:45.903Z,1.50
2019-03-19T14:10:18.022Z,1.75
2019-03-19T14:12:46.860Z,2.30
2019-03-19T14:15:17.894Z,2.98
2019-03-19T14:17:46.326Z,2.02
2019-03-19T14:20:16.177Z,1.60
2019-03-19T14:22:45.470Z,2.00
2019-03-19T14:25:16.192Z,2.17
2019-03-19T14:27:45.105Z,2.80
2019-03-19T14:30:15.561Z,2.77
2019-03-19T14:32:44.072Z,2.27
2019-03-19T14:35:12.942Z,1.95
2019-03-19T14:37:41.376Z,1.80
2019-03-19T14:40:15.205Z,2.02
2019-03-19T14:42:43.813Z,2.30
2019-03-19T14:45:13.024Z,2.35
2019-03-19T14:47:41.497Z,2.02
2019-03-19T14:50:15.921Z,1.98
2019-03-19T14:52:44.359Z,2.95
2019-03-19T14:55:13.438Z,2.63
2019-03-19T14:57:41.951Z,2.15
2019-03-19T15:00:18.199Z,2.15
2019-03-19T15:02:46.626Z,2.00
2019-03-19T15:05:15.700Z,2.13
2019-03-19T15:07:44.545Z,1.87
2019-03-19T15:10:17.801Z,2.47
2019-03-19T15:12:46.216Z,2.50
2019-03-19T15:15:19.313Z,2.80
2019-03-19T15:17:47.712Z,2.30
2019-03-19T15:20:23.751Z,2.33
2019-03-19T15:22:52.190Z,2.20
2019-03-19T15:25:20.671Z,2.37
2019-03-19T15:27:49.109Z,2.30
2019-03-19T15:30:21.653Z,2.80
2019-03-19T15:32:50.066Z,2.20
2019-03-19T15:35:18.626Z,2.00
2019-03-19T15:37:47.114Z,2.13
2019-03-19T15:40:16.525Z,2.10
2019-03-19T15:42:45.155Z,2.20
2019-03-19T15:45:16.081Z,1.70
2019-03-19T15:47:44.549Z,2.03
2019-03-19T15:50:14.844Z,1.90
2019-03-19T15:52:43.336Z,1.97
2019-03-19T15:55:13.740Z,2.47
2019-03-19T15:57:42.309Z,2.70
2019-03-19T16:00:17.830Z,1.73
2019-03-19T16:02:46.515Z,1.93
2019-03-19T16:05:15.493Z,1.63
2019-03-19T16:07:44.496Z,2.00
2019-03-19T16:10:17.989Z,1.80
2019-03-19T16:12:46.458Z,1.87
2019-03-19T16:15:23.075Z,2.60
2019-03-19T16:17:51.634Z,2.33
2019-03-19T16:20:20.984Z,2.10
2019-03-19T16:22:49.472Z,4.00
2019-03-19T16:25:18.120Z,2.53
2019-03-19T16:27:46.527Z,2.70
2019-03-19T16:30:15.902Z,2.60
2019-03-19T16:32:44.552Z,1.60
2019-03-19T16:35:13.903Z,2.10
2019-03-19T16:37:42.403Z,2.30
2019-03-19T16:40:16.393Z,2.47
2019-03-19T16:42:44.809Z,1.70
2019-03-19T16:45:13.489Z,1.10
2019-03-19T16:47:41.985Z,1.67
2019-03-19T16:50:13.520Z,1.40
2019-03-19T16:52:41.933Z,1.27
2019-03-19T16:55:13.095Z,1.97
2019-03-19T16:57:41.591Z,2.20
2019-03-19T17:00:12.897Z,2.10
2019-03-19T17:02:41.414Z,3.63
2019-03-19T17:05:10.763Z,2.47
2019-03-19T17:07:39.207Z,2.70
2019-03-19T17:10:10.666Z,2.20
2019-03-19T17:12:39.175Z,3.13
2019-03-19T17:15:10.398Z,2.70
2019-03-19T17:17:38.839Z,3.10
2019-03-19T17:20:10.770Z,3.00
2019-03-19T17:22:39.303Z,2.43
2019-03-19T17:25:10.708Z,2.23
2019-03-19T17:27:39.201Z,1.97
2019-03-19T17:30:25.783Z,1.60
2019-03-19T17:32:54.446Z,2.00
2019-03-19T17:35:22.967Z,3.73
2019-03-19T17:37:51.571Z,2.30
2019-03-19T17:40:20.147Z,2.40
2019-03-19T17:42:48.708Z,2.83
2019-03-19T17:45:17.415Z,3.00
2019-03-19T17:47:46.206Z,2.53
2019-03-19T17:50:21.774Z,2.53
2019-03-19T17:52:52.040Z,5.90
2019-03-19T17:55:20.506Z,6.03
2019-03-19T17:57:48.980Z,7.45
2019-03-19T18:00:20.524Z,6.60
2019-03-19T18:02:49.082Z,6.40
2019-03-19T18:05:17.640Z,6.57
2019-03-19T18:07:46.762Z,10.23
2019-03-19T18:10:15.547Z,7.33
2019-03-19T18:12:44.005Z,12.10
2019-03-19T18:15:14.017Z,14.33
2019-03-19T18:17:42.675Z,13.17
2019-03-19T18:20:17.097Z,11.30
2019-03-19T18:22:45.598Z,5.50
2019-03-19T18:25:19.648Z,5.87
2019-03-19T18:27:48.147Z,5.53
2019-03-19T18:30:21.214Z,5.10
2019-03-19T18:32:49.697Z,4.80
2019-03-19T18:35:18.112Z,4.57
2019-03-19T18:37:46.663Z,5.10
2019-03-19T18:40:19.712Z,4.60
2019-03-19T18:42:48.417Z,5.60
2019-03-19T18:45:20.658Z,6.20
2019-03-19T18:47:49.235Z,6.33
2019-03-19T18:50:24.297Z,5.70
2019-03-19T18:52:52.738Z,5.93
2019-03-19T18:55:21.278Z,6.70
2019-03-19T18:57:49.777Z,5.47
2019-03-19T19:00:19.352Z,4.10
2019-03-19T19:02:50.849Z,3.93
2019-03-19T19:05:23.090Z,3.97
2019-03-19T19:07:51.635Z,4.23
2019-03-19T19:10:21.367Z,9.10
2019-03-19T19:12:50.141Z,7.27
2019-03-19T19:15:23.089Z,6.90
2019-03-19T19:17:51.564Z,6.40
2019-03-19T19:20:20.306Z,8.30
2019-03-19T19:22:48.785Z,7.50
2019-03-19T19:25:24.818Z,5.67
2019-03-19T19:27:53.240Z,6.17
2019-03-19T19:30:29.360Z,5.37
2019-03-19T19:33:02.153Z,5.23
2019-03-19T19:35:27.995Z,4.10
2019-03-19T19:37:56.423Z,4.80
2019-03-19T19:40:24.922Z,4.07
2019-03-19T19:42:53.404Z,5.00
2019-03-19T19:45:21.822Z,4.47
2019-03-19T19:47:50.294Z,5.50
2019-03-19T19:50:20.874Z,5.37
2019-03-19T19:52:49.457Z,5.70
2019-03-19T19:55:17.998Z,5.17
2019-03-19T19:57:46.707Z,8.40
2019-03-19T20:00:19.627Z,5.50
2019-03-19T20:02:48.253Z,6.27
2019-03-19T20:05:16.948Z,5.47
2019-03-19T20:07:45.492Z,5.23
2019-03-19T20:10:21.564Z,3.67
2019-03-19T20:12:50.201Z,3.73
2019-03-19T20:15:18.891Z,2.40
2019-03-19T20:17:47.388Z,2.73
2019-03-19T20:20:26.987Z,2.80
2019-03-19T20:22:55.418Z,5.27
2019-03-19T20:25:23.846Z,4.57
2019-03-19T20:27:52.336Z,4.10
2019-03-19T20:30:22.911Z,4.90
2019-03-19T20:32:51.342Z,6.23
2019-03-19T20:35:19.793Z,6.63
2019-03-19T20:37:48.260Z,6.63
2019-03-19T20:40:17.216Z,6.30
2019-03-19T20:42:45.784Z,6.10
2019-03-19T20:45:16.620Z,6.83
2019-03-19T20:47:45.088Z,5.53
2019-03-19T20:50:16.343Z,5.50
2019-03-19T20:52:45.139Z,4.57
2019-03-19T20:55:13.777Z,4.10
2019-03-19T20:57:42.195Z,3.37
2019-03-19T21:03:41.087Z,3.20
2019-03-19T21:06:09.770Z,2.90
2019-03-19T21:08:38.273Z,2.90
2019-03-19T21:11:06.753Z,3.20
2019-03-19T21:13:35.176Z,4.07
2019-03-19T21:16:03.643Z,3.97
2019-03-19T21:18:32.025Z,4.13
2019-03-19T21:21:00.578Z,4.17
2019-03-19T21:23:29.031Z,3.67
2019-03-19T21:25:57.515Z,3.60
2019-03-19T21:28:26.076Z,3.60
2019-03-19T21:30:54.502Z,8.97
2019-03-19T21:33:23.001Z,13.10
2019-03-19T21:35:51.487Z,10.23
2019-03-19T21:38:19.928Z,8.80
2019-03-19T21:40:48.349Z,5.33
2019-03-19T21:43:17.120Z,3.73
2019-03-19T21:45:45.525Z,4.20
2019-03-19T21:48:14.062Z,3.97
2019-03-19T21:50:42.584Z,3.10
2019-03-19T21:53:10.953Z,3.93
2019-03-19T21:55:39.385Z,3.83
2019-03-19T21:58:07.779Z,4.47
2019-03-19T22:00:36.254Z,5.00
2019-03-19T22:03:04.797Z,4.67
2019-03-19T22:05:33.381Z,4.83
2019-03-19T22:08:01.886Z,8.23
2019-03-19T22:10:30.288Z,8.13
2019-03-19T22:12:58.782Z,9.30
2019-03-19T22:15:27.204Z,7.97
2019-03-19T22:17:55.848Z,6.93
2019-03-19T22:20:24.428Z,6.33
2019-03-19T22:22:52.996Z,4.67
2019-03-19T22:25:21.405Z,6.07
2019-03-19T22:27:49.883Z,5.73
2019-03-19T22:30:22.053Z,5.50
2019-03-19T22:32:50.517Z,7.63
2019-03-19T22:35:18.922Z,9.57
2019-03-19T22:37:47.664Z,9.83
2019-03-19T22:40:16.794Z,9.30
2019-03-19T22:42:45.195Z,9.20
2019-03-19T22:45:15.601Z,10.03
2019-03-19T22:47:44.069Z,9.27
2019-03-19T22:50:14.980Z,11.40
2019-03-19T22:52:43.555Z,9.07
2019-03-19T22:55:13.563Z,7.57
2019-03-19T22:57:42.035Z,7.10
2019-03-19T23:00:31.567Z,7.03
2019-03-19T23:03:00.089Z,7.23
2019-03-19T23:05:28.694Z,10.40
2019-03-19T23:07:57.221Z,8.03
2019-03-19T23:10:25.722Z,8.53
2019-03-19T23:12:54.154Z,15.43
2019-03-19T23:15:22.781Z,12.67
2019-03-19T23:17:51.273Z,9.07
2019-03-19T23:20:19.805Z,5.33
2019-03-19T23:22:48.260Z,4.20
2019-03-19T23:25:16.815Z,3.53
2019-03-19T23:27:45.311Z,3.53
2019-03-19T23:30:21.237Z,2.97
2019-03-19T23:32:49.647Z,3.13
2019-03-19T23:35:18.114Z,3.10
2019-03-19T23:37:46.584Z,3.00
2019-03-19T23:40:16.433Z,2.40
2019-03-19T23:42:44.838Z,3.07
2019-03-19T23:45:14.036Z,2.70
2019-03-19T23:47:42.504Z,2.80
2019-03-19T23:50:12.962Z,2.80
2019-03-19T23:52:41.451Z,2.93
2019-03-19T23:55:10.661Z,3.00
2019-03-19T23:57:39.227Z,3.03
